sensor_id;sensor_type;location;lat;lon;timestamp;P1;durP1;ratioP1;P2;durP2;ratioP2
49834;SDS011;35729;52.090;13.162;2024-02-16T00:01:28;22.40;;;15.38;;
49834;SDS011;35729;52.090;13.162;2024-02-16T00:03:57;21.20;;;14.93;;
49834;SDS011;35729;52.090;13.162;2024-02-16T00:06:25;22.67;;;16.30;;
49834;SDS011;35729;52.090;13.162;2024-02-16T00:08:54;20.90;;;15.15;;
49834;SDS011;35729;52.090;13.162;2024-02-16T00:11:23;18.45;;;14.20;;
49834;SDS011;35729;52.090;13.162;2024-02-16T00:13:52;21.98;;;15.98;;
49834;SDS011;35729;52.090;13.162;2024-02-16T00:16:24;20.85;;;15.15;;
49834;SDS011;35729;52.090;13.162;2024-02-16T00:18:52;23.08;;;16.35;;
49834;SDS011;35729;52.090;13.162;2024-02-16T00:21:42;18.60;;;14.48;;
49834;SDS011;35729;52.090;13.162;2024-02-16T00:24:11;19.63;;;16.45;;
49834;SDS011;35729;52.090;13.162;2024-02-16T00:26:39;22.67;;;15.70;;
49834;SDS011;35729;52.090;13.162;2024-02-16T00:29:10;21.55;;;15.90;;
49834;SDS011;35729;52.090;13.162;2024-02-16T00:31:41;22.90;;;16.83;;
49834;SDS011;35729;52.090;13.162;2024-02-16T00:34:09;21.63;;;17.13;;
49834;SDS011;35729;52.090;13.162;2024-02-16T00:36:38;22.30;;;16.73;;
49834;SDS011;35729;52.090;13.162;2024-02-16T00:39:07;22.75;;;16.95;;
49834;SDS011;35729;52.090;13.162;2024-02-16T00:41:35;22.38;;;16.60;;
49834;SDS011;35729;52.090;13.162;2024-02-16T00:44:04;24.95;;;17.27;;
49834;SDS011;35729;52.090;13.162;2024-02-16T00:46:32;23.05;;;18.00;;
49834;SDS011;35729;52.090;13.162;2024-02-16T00:49:05;21.20;;;16.45;;
49834;SDS011;35729;52.090;13.162;2024-02-16T00:51:35;23.52;;;16.50;;
49834;SDS011;35729;52.090;13.162;2024-02-16T00:54:03;21.67;;;16.52;;
49834;SDS011;35729;52.090;13.162;2024-02-16T00:56:32;23.77;;;17.52;;
49834;SDS011;35729;52.090;13.162;2024-02-16T00:59:01;24.92;;;18.35;;
49834;SDS011;35729;52.090;13.162;2024-02-16T01:01:29;22.38;;;16.48;;
49834;SDS011;35729;52.090;13.162;2024-02-16T01:03:58;20.98;;;16.85;;
49834;SDS011;35729;52.090;13.162;2024-02-16T01:06:29;27.23;;;18.33;;
49834;SDS011;35729;52.090;13.162;2024-02-16T01:08:57;23.45;;;18.10;;
49834;SDS011;35729;52.090;13.162;2024-02-16T01:11:26;23.42;;;17.73;;
49834;SDS011;35729;52.090;13.162;2024-02-16T01:13:55;24.25;;;17.63;;
49834;SDS011;35729;52.090;13.162;2024-02-16T01:16:24;25.08;;;18.83;;
49834;SDS011;35729;52.090;13.162;2024-02-16T01:18:58;24.58;;;18.45;;
49834;SDS011;35729;52.090;13.162;2024-02-16T01:21:29;25.98;;;18.90;;
49834;SDS011;35729;52.090;13.162;2024-02-16T01:23:58;25.80;;;19.42;;
49834;SDS011;35729;52.090;13.162;2024-02-16T01:26:26;22.35;;;17.17;;
49834;SDS011;35729;52.090;13.162;2024-02-16T01:28:55;25.83;;;19.83;;
49834;SDS011;35729;52.090;13.162;2024-02-16T01:31:23;24.33;;;18.33;;
49834;SDS011;35729;52.090;13.162;2024-02-16T01:33:52;25.27;;;18.55;;
49834;SDS011;35729;52.090;13.162;2024-02-16T01:36:20;23.58;;;17.77;;
49834;SDS011;35729;52.090;13.162;2024-02-16T01:38:51;25.58;;;18.58;;
49834;SDS011;35729;52.090;13.162;2024-02-16T01:41:20;24.95;;;18.73;;
49834;SDS011;35729;52.090;13.162;2024-02-16T01:43:51;23.00;;;19.17;;
49834;SDS011;35729;52.090;13.162;2024-02-16T01:46:20;27.75;;;19.48;;
49834;SDS011;35729;52.090;13.162;2024-02-16T01:48:48;23.38;;;19.15;;
49834;SDS011;35729;52.090;13.162;2024-02-16T01:51:18;22.88;;;18.33;;
49834;SDS011;35729;52.090;13.162;2024-02-16T01:53:47;23.13;;;18.63;;
49834;SDS011;35729;52.090;13.162;2024-02-16T01:56:24;23.58;;;18.52;;
49834;SDS011;35729;52.090;13.162;2024-02-16T01:58:52;24.25;;;19.85;;
49834;SDS011;35729;52.090;13.162;2024-02-16T02:01:21;21.02;;;16.88;;
49834;SDS011;35729;52.090;13.162;2024-02-16T02:03:49;23.60;;;17.60;;
49834;SDS011;35729;52.090;13.162;2024-02-16T02:06:18;23.65;;;17.55;;
49834;SDS011;35729;52.090;13.162;2024-02-16T02:08:46;27.00;;;18.50;;
49834;SDS011;35729;52.090;13.162;2024-02-16T02:11:15;22.98;;;17.60;;
49834;SDS011;35729;52.090;13.162;2024-02-16T02:13:46;21.98;;;17.35;;
49834;SDS011;35729;52.090;13.162;2024-02-16T02:16:27;22.77;;;17.38;;
49834;SDS011;35729;52.090;13.162;2024-02-16T02:18:56;25.77;;;15.98;;
49834;SDS011;35729;52.090;13.162;2024-02-16T02:21:25;20.90;;;16.38;;
49834;SDS011;35729;52.090;13.162;2024-02-16T02:23:56;23.50;;;17.55;;
49834;SDS011;35729;52.090;13.162;2024-02-16T02:26:25;22.35;;;17.15;;
49834;SDS011;35729;52.090;13.162;2024-02-16T02:28:53;24.95;;;16.08;;
49834;SDS011;35729;52.090;13.162;2024-02-16T02:31:22;19.65;;;15.98;;
49834;SDS011;35729;52.090;13.162;2024-02-16T02:33:50;23.77;;;16.67;;
49834;SDS011;35729;52.090;13.162;2024-02-16T02:36:19;21.80;;;16.33;;
49834;SDS011;35729;52.090;13.162;2024-02-16T02:38:47;21.85;;;15.88;;
49834;SDS011;35729;52.090;13.162;2024-02-16T02:41:18;19.65;;;15.38;;
49834;SDS011;35729;52.090;13.162;2024-02-16T02:43:47;19.17;;;15.38;;
49834;SDS011;35729;52.090;13.162;2024-02-16T02:46:15;20.83;;;15.68;;
49834;SDS011;35729;52.090;13.162;2024-02-16T02:48:44;21.88;;;15.93;;
49834;SDS011;35729;52.090;13.162;2024-02-16T02:51:14;18.63;;;14.93;;
49834;SDS011;35729;52.090;13.162;2024-02-16T02:53:39;17.73;;;14.95;;
49834;SDS011;35729;52.090;13.162;2024-02-16T02:56:08;19.83;;;13.63;;
49834;SDS011;35729;52.090;13.162;2024-02-16T02:58:41;20.30;;;14.80;;
49834;SDS011;35729;52.090;13.162;2024-02-16T03:01:09;15.82;;;13.52;;
49834;SDS011;35729;52.090;13.162;2024-02-16T03:03:38;17.27;;;13.80;;
49834;SDS011;35729;52.090;13.162;2024-02-16T03:06:08;16.85;;;12.98;;
49834;SDS011;35729;52.090;13.162;2024-02-16T03:08:36;18.70;;;13.18;;
49834;SDS011;35729;52.090;13.162;2024-02-16T03:11:04;18.67;;;12.75;;
49834;SDS011;35729;52.090;13.162;2024-02-16T03:13:33;18.80;;;13.48;;
49834;SDS011;35729;52.090;13.162;2024-02-16T03:16:04;18.42;;;14.02;;
49834;SDS011;35729;52.090;13.162;2024-02-16T03:18:33;22.60;;;14.65;;
49834;SDS011;35729;52.090;13.162;2024-02-16T03:21:02;18.38;;;13.75;;
49834;SDS011;35729;52.090;13.162;2024-02-16T03:23:31;16.92;;;12.77;;
49834;SDS011;35729;52.090;13.162;2024-02-16T03:25:59;19.17;;;13.73;;
49834;SDS011;35729;52.090;13.162;2024-02-16T03:28:27;20.70;;;13.65;;
49834;SDS011;35729;52.090;13.162;2024-02-16T03:30:56;18.52;;;13.63;;
49834;SDS011;35729;52.090;13.162;2024-02-16T03:33:27;19.52;;;14.13;;
49834;SDS011;35729;52.090;13.162;2024-02-16T03:35:55;16.77;;;13.05;;
49834;SDS011;35729;52.090;13.162;2024-02-16T03:38:25;17.35;;;13.25;;
49834;SDS011;35729;52.090;13.162;2024-02-16T03:40:53;18.77;;;14.00;;
49834;SDS011;35729;52.090;13.162;2024-02-16T03:43:22;18.00;;;13.57;;
49834;SDS011;35729;52.090;13.162;2024-02-16T03:45:50;15.98;;;12.48;;
49834;SDS011;35729;52.090;13.162;2024-02-16T03:48:18;14.75;;;12.05;;
49834;SDS011;35729;52.090;13.162;2024-02-16T03:50:49;16.08;;;12.90;;
49834;SDS011;35729;52.090;13.162;2024-02-16T03:53:18;17.35;;;13.07;;
49834;SDS011;35729;52.090;13.162;2024-02-16T03:55:44;19.13;;;12.45;;
49834;SDS011;35729;52.090;13.162;2024-02-16T03:58:12;19.77;;;11.95;;
49834;SDS011;35729;52.090;13.162;2024-02-16T04:00:40;17.05;;;12.40;;
49834;SDS011;35729;52.090;13.162;2024-02-16T04:03:09;18.27;;;12.35;;
49834;SDS011;35729;52.090;13.162;2024-02-16T04:05:44;15.13;;;11.38;;
49834;SDS011;35729;52.090;13.162;2024-02-16T04:08:15;15.02;;;11.73;;
49834;SDS011;35729;52.090;13.162;2024-02-16T04:10:44;16.58;;;11.90;;
49834;SDS011;35729;52.090;13.162;2024-02-16T04:13:13;16.25;;;11.23;;
49834;SDS011;35729;52.090;13.162;2024-02-16T04:15:41;17.60;;;11.60;;
49834;SDS011;35729;52.090;13.162;2024-02-16T04:18:10;18.25;;;13.02;;
49834;SDS011;35729;52.090;13.162;2024-02-16T04:20:38;18.13;;;12.23;;
49834;SDS011;35729;52.090;13.162;2024-02-16T04:23:07;16.27;;;12.15;;
49834;SDS011;35729;52.090;13.162;2024-02-16T04:25:38;18.33;;;12.48;;
49834;SDS011;35729;52.090;13.162;2024-02-16T04:28:06;14.07;;;11.30;;
49834;SDS011;35729;52.090;13.162;2024-02-16T04:30:35;16.98;;;11.27;;
49834;SDS011;35729;52.090;13.162;2024-02-16T04:33:04;24.73;;;11.90;;
49834;SDS011;35729;52.090;13.162;2024-02-16T04:35:33;15.18;;;11.02;;
49834;SDS011;35729;52.090;13.162;2024-02-16T04:38:01;15.73;;;11.15;;
49834;SDS011;35729;52.090;13.162;2024-02-16T04:40:33;17.30;;;11.05;;
49834;SDS011;35729;52.090;13.162;2024-02-16T04:45:34;14.50;;;10.57;;
49834;SDS011;35729;52.090;13.162;2024-02-16T04:48:03;15.30;;;10.73;;
49834;SDS011;35729;52.090;13.162;2024-02-16T04:50:32;16.70;;;11.18;;
49834;SDS011;35729;52.090;13.162;2024-02-16T04:53:01;15.23;;;10.57;;
49834;SDS011;35729;52.090;13.162;2024-02-16T04:55:30;15.93;;;11.38;;
49834;SDS011;35729;52.090;13.162;2024-02-16T04:58:01;13.70;;;10.27;;
49834;SDS011;35729;52.090;13.162;2024-02-16T05:00:34;15.65;;;10.35;;
49834;SDS011;35729;52.090;13.162;2024-02-16T05:03:03;14.95;;;10.60;;
49834;SDS011;35729;52.090;13.162;2024-02-16T05:05:32;15.52;;;10.77;;
49834;SDS011;35729;52.090;13.162;2024-02-16T05:08:00;14.23;;;10.10;;
49834;SDS011;35729;52.090;13.162;2024-02-16T05:10:30;13.48;;;9.80;;
49834;SDS011;35729;52.090;13.162;2024-02-16T05:13:01;16.55;;;10.18;;
49834;SDS011;35729;52.090;13.162;2024-02-16T05:15:30;16.83;;;11.02;;
49834;SDS011;35729;52.090;13.162;2024-02-16T05:17:58;13.45;;;10.30;;
49834;SDS011;35729;52.090;13.162;2024-02-16T05:20:27;15.23;;;10.45;;
49834;SDS011;35729;52.090;13.162;2024-02-16T05:22:55;16.50;;;10.90;;
49834;SDS011;35729;52.090;13.162;2024-02-16T05:25:24;16.15;;;11.05;;
49834;SDS011;35729;52.090;13.162;2024-02-16T05:27:52;18.80;;;11.88;;
49834;SDS011;35729;52.090;13.162;2024-02-16T05:30:23;17.60;;;12.63;;
49834;SDS011;35729;52.090;13.162;2024-02-16T05:32:52;18.67;;;11.43;;
49834;SDS011;35729;52.090;13.162;2024-02-16T05:35:23;19.00;;;11.40;;
49834;SDS011;35729;52.090;13.162;2024-02-16T05:37:54;14.35;;;10.05;;
49834;SDS011;35729;52.090;13.162;2024-02-16T05:40:23;15.48;;;10.27;;
49834;SDS011;35729;52.090;13.162;2024-02-16T05:42:52;13.98;;;11.27;;
49834;SDS011;35729;52.090;13.162;2024-02-16T05:45:25;18.85;;;13.10;;
49834;SDS011;35729;52.090;13.162;2024-02-16T05:47:54;21.92;;;13.32;;
49834;SDS011;35729;52.090;13.162;2024-02-16T05:50:23;20.88;;;14.30;;
49834;SDS011;35729;52.090;13.162;2024-02-16T05:52:51;23.02;;;13.95;;
49834;SDS011;35729;52.090;13.162;2024-02-16T05:55:20;19.85;;;13.32;;
49834;SDS011;35729;52.090;13.162;2024-02-16T05:57:49;16.48;;;11.00;;
49834;SDS011;35729;52.090;13.162;2024-02-16T06:00:15;17.88;;;10.85;;
49834;SDS011;35729;52.090;13.162;2024-02-16T06:02:49;14.18;;;10.30;;
49834;SDS011;35729;52.090;13.162;2024-02-16T06:05:17;13.98;;;10.35;;
49834;SDS011;35729;52.090;13.162;2024-02-16T06:07:49;12.82;;;9.43;;
49834;SDS011;35729;52.090;13.162;2024-02-16T06:10:19;23.77;;;15.10;;
49834;SDS011;35729;52.090;13.162;2024-02-16T06:12:48;14.15;;;10.63;;
49834;SDS011;35729;52.090;13.162;2024-02-16T06:15:16;14.52;;;10.38;;
49834;SDS011;35729;52.090;13.162;2024-02-16T06:17:45;12.43;;;10.10;;
49834;SDS011;35729;52.090;13.162;2024-02-16T06:20:16;16.70;;;10.73;;
49834;SDS011;35729;52.090;13.162;2024-02-16T06:22:45;18.38;;;12.68;;
49834;SDS011;35729;52.090;13.162;2024-02-16T06:25:13;14.40;;;10.07;;
49834;SDS011;35729;52.090;13.162;2024-02-16T06:27:42;17.60;;;10.25;;
49834;SDS011;35729;52.090;13.162;2024-02-16T06:30:11;14.75;;;10.77;;
49834;SDS011;35729;52.090;13.162;2024-02-16T06:32:40;18.38;;;11.25;;
49834;SDS011;35729;52.090;13.162;2024-02-16T06:35:09;17.58;;;11.60;;
49834;SDS011;35729;52.090;13.162;2024-02-16T06:37:40;16.40;;;11.50;;
49834;SDS011;35729;52.090;13.162;2024-02-16T06:40:09;17.08;;;11.43;;
49834;SDS011;35729;52.090;13.162;2024-02-16T06:42:38;15.90;;;11.23;;
49834;SDS011;35729;52.090;13.162;2024-02-16T06:45:07;13.25;;;9.70;;
49834;SDS011;35729;52.090;13.162;2024-02-16T06:47:36;14.88;;;9.18;;
49834;SDS011;35729;52.090;13.162;2024-02-16T06:50:05;13.45;;;9.63;;
49834;SDS011;35729;52.090;13.162;2024-02-16T06:52:34;13.70;;;9.38;;
49834;SDS011;35729;52.090;13.162;2024-02-16T06:55:06;16.40;;;9.05;;
49834;SDS011;35729;52.090;13.162;2024-02-16T06:57:34;11.52;;;8.85;;
49834;SDS011;35729;52.090;13.162;2024-02-16T07:00:03;12.15;;;8.77;;
49834;SDS011;35729;52.090;13.162;2024-02-16T07:02:33;13.48;;;8.85;;
49834;SDS011;35729;52.090;13.162;2024-02-16T07:05:02;12.60;;;9.15;;
49834;SDS011;35729;52.090;13.162;2024-02-16T07:07:31;13.82;;;9.68;;
49834;SDS011;35729;52.090;13.162;2024-02-16T07:10:01;13.35;;;8.63;;
49834;SDS011;35729;52.090;13.162;2024-02-16T07:12:33;14.80;;;10.02;;
49834;SDS011;35729;52.090;13.162;2024-02-16T07:15:01;12.85;;;9.25;;
49834;SDS011;35729;52.090;13.162;2024-02-16T07:17:30;12.10;;;9.18;;
49834;SDS011;35729;52.090;13.162;2024-02-16T07:19:59;15.43;;;9.75;;
49834;SDS011;35729;52.090;13.162;2024-02-16T07:22:29;11.88;;;8.85;;
49834;SDS011;35729;52.090;13.162;2024-02-16T07:24:57;14.63;;;10.13;;
49834;SDS011;35729;52.090;13.162;2024-02-16T07:27:29;13.80;;;9.10;;
49834;SDS011;35729;52.090;13.162;2024-02-16T07:30:00;11.95;;;8.60;;
49834;SDS011;35729;52.090;13.162;2024-02-16T07:32:29;14.50;;;10.10;;
49834;SDS011;35729;52.090;13.162;2024-02-16T07:34:57;16.58;;;10.60;;
49834;SDS011;35729;52.090;13.162;2024-02-16T07:37:28;15.95;;;9.95;;
49834;SDS011;35729;52.090;13.162;2024-02-16T07:39:57;18.75;;;9.60;;
49834;SDS011;35729;52.090;13.162;2024-02-16T07:42:26;13.95;;;9.75;;
49834;SDS011;35729;52.090;13.162;2024-02-16T07:44:54;13.23;;;9.48;;
49834;SDS011;35729;52.090;13.162;2024-02-16T07:47:25;16.67;;;10.55;;
49834;SDS011;35729;52.090;13.162;2024-02-16T07:49:54;14.32;;;9.20;;
49834;SDS011;35729;52.090;13.162;2024-02-16T07:52:22;15.20;;;10.20;;
49834;SDS011;35729;52.090;13.162;2024-02-16T07:54:51;14.48;;;10.20;;
49834;SDS011;35729;52.090;13.162;2024-02-16T07:57:25;12.02;;;9.00;;
49834;SDS011;35729;52.090;13.162;2024-02-16T07:59:55;12.48;;;8.48;;
49834;SDS011;35729;52.090;13.162;2024-02-16T08:02:27;15.70;;;10.02;;
49834;SDS011;35729;52.090;13.162;2024-02-16T08:04:55;15.45;;;9.55;;
49834;SDS011;35729;52.090;13.162;2024-02-16T08:07:23;15.73;;;9.07;;
49834;SDS011;35729;52.090;13.162;2024-02-16T08:09:52;13.50;;;8.82;;
49834;SDS011;35729;52.090;13.162;2024-02-16T08:12:21;12.05;;;8.50;;
49834;SDS011;35729;52.090;13.162;2024-02-16T08:14:50;14.68;;;9.60;;
49834;SDS011;35729;52.090;13.162;2024-02-16T08:17:19;10.48;;;7.63;;
49834;SDS011;35729;52.090;13.162;2024-02-16T08:19:54;10.73;;;8.20;;
49834;SDS011;35729;52.090;13.162;2024-02-16T08:22:22;13.07;;;9.60;;
49834;SDS011;35729;52.090;13.162;2024-02-16T08:24:51;13.18;;;8.65;;
49834;SDS011;35729;52.090;13.162;2024-02-16T08:27:19;12.27;;;9.45;;
49834;SDS011;35729;52.090;13.162;2024-02-16T08:29:48;11.90;;;8.55;;
49834;SDS011;35729;52.090;13.162;2024-02-16T08:32:17;12.35;;;8.73;;
49834;SDS011;35729;52.090;13.162;2024-02-16T08:34:45;10.88;;;8.15;;
49834;SDS011;35729;52.090;13.162;2024-02-16T08:37:17;10.48;;;7.80;;
49834;SDS011;35729;52.090;13.162;2024-02-16T08:39:46;10.82;;;7.40;;
49834;SDS011;35729;52.090;13.162;2024-02-16T08:42:14;12.95;;;8.93;;
49834;SDS011;35729;52.090;13.162;2024-02-16T08:44:43;9.90;;;7.50;;
49834;SDS011;35729;52.090;13.162;2024-02-16T08:47:11;11.35;;;7.57;;
49834;SDS011;35729;52.090;13.162;2024-02-16T08:49:40;11.35;;;7.78;;
49834;SDS011;35729;52.090;13.162;2024-02-16T08:52:09;11.63;;;7.70;;
49834;SDS011;35729;52.090;13.162;2024-02-16T08:54:40;11.13;;;7.60;;
49834;SDS011;35729;52.090;13.162;2024-02-16T08:57:10;12.80;;;7.82;;
49834;SDS011;35729;52.090;13.162;2024-02-16T08:59:38;8.43;;;6.45;;
49834;SDS011;35729;52.090;13.162;2024-02-16T09:02:07;11.40;;;7.57;;
49834;SDS011;35729;52.090;13.162;2024-02-16T09:04:35;9.43;;;6.70;;
49834;SDS011;35729;52.090;13.162;2024-02-16T09:07:04;13.73;;;8.27;;
49834;SDS011;35729;52.090;13.162;2024-02-16T09:09:32;10.45;;;6.90;;
49834;SDS011;35729;52.090;13.162;2024-02-16T09:12:04;8.45;;;6.45;;
49834;SDS011;35729;52.090;13.162;2024-02-16T09:14:32;8.32;;;6.07;;
49834;SDS011;35729;52.090;13.162;2024-02-16T09:17:01;9.40;;;6.93;;
49834;SDS011;35729;52.090;13.162;2024-02-16T09:19:29;8.25;;;6.53;;
49834;SDS011;35729;52.090;13.162;2024-02-16T09:21:59;10.05;;;6.75;;
49834;SDS011;35729;52.090;13.162;2024-02-16T09:24:28;9.68;;;6.00;;
49834;SDS011;35729;52.090;13.162;2024-02-16T09:26:57;9.45;;;6.80;;
49834;SDS011;35729;52.090;13.162;2024-02-16T09:29:31;7.65;;;5.15;;
49834;SDS011;35729;52.090;13.162;2024-02-16T09:31:59;8.48;;;6.25;;
49834;SDS011;35729;52.090;13.162;2024-02-16T09:34:28;7.88;;;6.10;;
49834;SDS011;35729;52.090;13.162;2024-02-16T09:36:56;18.38;;;7.40;;
49834;SDS011;35729;52.090;13.162;2024-02-16T09:39:25;10.68;;;5.72;;
49834;SDS011;35729;52.090;13.162;2024-02-16T09:41:54;7.75;;;5.50;;
49834;SDS011;35729;52.090;13.162;2024-02-16T09:44:23;9.38;;;6.10;;
49834;SDS011;35729;52.090;13.162;2024-02-16T09:46:54;10.43;;;6.72;;
49834;SDS011;35729;52.090;13.162;2024-02-16T09:49:23;7.45;;;5.97;;
49834;SDS011;35729;52.090;13.162;2024-02-16T09:51:52;8.35;;;6.47;;
49834;SDS011;35729;52.090;13.162;2024-02-16T09:54:24;7.90;;;6.60;;
49834;SDS011;35729;52.090;13.162;2024-02-16T09:56:53;9.52;;;7.03;;
49834;SDS011;35729;52.090;13.162;2024-02-16T09:59:24;9.27;;;6.63;;
49834;SDS011;35729;52.090;13.162;2024-02-16T10:02:01;7.90;;;6.20;;
49834;SDS011;35729;52.090;13.162;2024-02-16T10:04:32;7.88;;;6.47;;
49834;SDS011;35729;52.090;13.162;2024-02-16T10:07:07;17.20;;;5.90;;
49834;SDS011;35729;52.090;13.162;2024-02-16T10:09:35;8.27;;;6.13;;
49834;SDS011;35729;52.090;13.162;2024-02-16T10:12:05;7.05;;;5.28;;
49834;SDS011;35729;52.090;13.162;2024-02-16T10:14:34;5.80;;;4.57;;
49834;SDS011;35729;52.090;13.162;2024-02-16T10:17:08;7.15;;;4.80;;
49834;SDS011;35729;52.090;13.162;2024-02-16T10:19:37;6.88;;;5.10;;
49834;SDS011;35729;52.090;13.162;2024-02-16T10:22:07;9.52;;;4.70;;
49834;SDS011;35729;52.090;13.162;2024-02-16T10:24:36;5.47;;;4.00;;
49834;SDS011;35729;52.090;13.162;2024-02-16T10:27:05;6.38;;;4.88;;
49834;SDS011;35729;52.090;13.162;2024-02-16T10:29:36;8.00;;;4.00;;
49834;SDS011;35729;52.090;13.162;2024-02-16T10:32:11;14.65;;;8.85;;
49834;SDS011;35729;52.090;13.162;2024-02-16T10:34:40;7.25;;;5.25;;
49834;SDS011;35729;52.090;13.162;2024-02-16T10:37:09;9.27;;;6.05;;
49834;SDS011;35729;52.090;13.162;2024-02-16T10:39:38;7.68;;;6.07;;
49834;SDS011;35729;52.090;13.162;2024-02-16T10:42:08;8.73;;;6.50;;
49834;SDS011;35729;52.090;13.162;2024-02-16T10:44:37;7.50;;;5.10;;
49834;SDS011;35729;52.090;13.162;2024-02-16T10:47:07;6.32;;;4.60;;
49834;SDS011;35729;52.090;13.162;2024-02-16T10:49:38;5.68;;;4.60;;
49834;SDS011;35729;52.090;13.162;2024-02-16T10:52:07;6.63;;;4.97;;
49834;SDS011;35729;52.090;13.162;2024-02-16T10:54:37;8.60;;;5.03;;
49834;SDS011;35729;52.090;13.162;2024-02-16T10:57:07;9.52;;;4.90;;
49834;SDS011;35729;52.090;13.162;2024-02-16T10:59:40;6.40;;;4.70;;
49834;SDS011;35729;52.090;13.162;2024-02-16T11:02:11;5.35;;;4.25;;
49834;SDS011;35729;52.090;13.162;2024-02-16T11:04:45;5.53;;;4.07;;
49834;SDS011;35729;52.090;13.162;2024-02-16T11:07:15;5.90;;;4.03;;
49834;SDS011;35729;52.090;13.162;2024-02-16T11:09:45;5.25;;;3.42;;
49834;SDS011;35729;52.090;13.162;2024-02-16T11:12:14;4.80;;;3.28;;
49834;SDS011;35729;52.090;13.162;2024-02-16T11:14:49;6.20;;;3.70;;
49834;SDS011;35729;52.090;13.162;2024-02-16T11:17:24;5.22;;;2.97;;
49834;SDS011;35729;52.090;13.162;2024-02-16T11:19:55;5.07;;;2.80;;
49834;SDS011;35729;52.090;13.162;2024-02-16T11:22:29;6.45;;;2.22;;
49834;SDS011;35729;52.090;13.162;2024-02-16T11:24:58;3.58;;;2.30;;
49834;SDS011;35729;52.090;13.162;2024-02-16T11:27:28;4.72;;;2.63;;
49834;SDS011;35729;52.090;13.162;2024-02-16T11:29:59;4.00;;;2.55;;
49834;SDS011;35729;52.090;13.162;2024-02-16T11:32:32;5.15;;;3.03;;
49834;SDS011;35729;52.090;13.162;2024-02-16T11:35:07;3.75;;;2.40;;
49834;SDS011;35729;52.090;13.162;2024-02-16T11:37:36;4.68;;;2.78;;
49834;SDS011;35729;52.090;13.162;2024-02-16T11:40:05;5.28;;;2.78;;
49834;SDS011;35729;52.090;13.162;2024-02-16T11:42:35;3.97;;;2.50;;
49834;SDS011;35729;52.090;13.162;2024-02-16T11:45:04;3.75;;;3.08;;
49834;SDS011;35729;52.090;13.162;2024-02-16T11:47:34;4.53;;;2.67;;
49834;SDS011;35729;52.090;13.162;2024-02-16T11:50:03;3.88;;;2.60;;
49834;SDS011;35729;52.090;13.162;2024-02-16T11:52:38;3.80;;;2.42;;
49834;SDS011;35729;52.090;13.162;2024-02-16T11:55:07;3.55;;;2.35;;
49834;SDS011;35729;52.090;13.162;2024-02-16T11:57:36;4.60;;;2.47;;
49834;SDS011;35729;52.090;13.162;2024-02-16T12:00:06;4.20;;;2.53;;
49834;SDS011;35729;52.090;13.162;2024-02-16T12:02:40;3.15;;;2.35;;
49834;SDS011;35729;52.090;13.162;2024-02-16T12:05:09;3.08;;;2.17;;
49834;SDS011;35729;52.090;13.162;2024-02-16T12:07:44;2.53;;;2.00;;
49834;SDS011;35729;52.090;13.162;2024-02-16T12:10:14;3.78;;;2.33;;
49834;SDS011;35729;52.090;13.162;2024-02-16T12:12:43;4.53;;;2.17;;
49834;SDS011;35729;52.090;13.162;2024-02-16T12:15:12;2.80;;;2.13;;
49834;SDS011;35729;52.090;13.162;2024-02-16T12:17:43;4.32;;;2.30;;
49834;SDS011;35729;52.090;13.162;2024-02-16T12:20:12;4.05;;;2.75;;
49834;SDS011;35729;52.090;13.162;2024-02-16T12:22:44;3.92;;;2.40;;
49834;SDS011;35729;52.090;13.162;2024-02-16T12:25:16;4.43;;;2.85;;
49834;SDS011;35729;52.090;13.162;2024-02-16T12:27:44;4.18;;;2.45;;
49834;SDS011;35729;52.090;13.162;2024-02-16T12:30:14;4.07;;;2.55;;
49834;SDS011;35729;52.090;13.162;2024-02-16T12:32:43;3.97;;;2.60;;
49834;SDS011;35729;52.090;13.162;2024-02-16T12:35:11;4.07;;;2.72;;
49834;SDS011;35729;52.090;13.162;2024-02-16T12:37:40;5.95;;;2.92;;
49834;SDS011;35729;52.090;13.162;2024-02-16T12:40:11;3.00;;;2.17;;
49834;SDS011;35729;52.090;13.162;2024-02-16T12:42:40;3.03;;;2.20;;
49834;SDS011;35729;52.090;13.162;2024-02-16T12:45:09;3.05;;;2.22;;
49834;SDS011;35729;52.090;13.162;2024-02-16T12:47:38;3.55;;;2.55;;
49834;SDS011;35729;52.090;13.162;2024-02-16T12:50:07;4.32;;;2.80;;
49834;SDS011;35729;52.090;13.162;2024-02-16T12:52:36;3.13;;;2.33;;
49834;SDS011;35729;52.090;13.162;2024-02-16T12:55:05;3.63;;;2.08;;
49834;SDS011;35729;52.090;13.162;2024-02-16T12:57:37;2.88;;;2.45;;
49834;SDS011;35729;52.090;13.162;2024-02-16T13:00:07;7.00;;;3.08;;
49834;SDS011;35729;52.090;13.162;2024-02-16T13:02:36;3.10;;;2.10;;
49834;SDS011;35729;52.090;13.162;2024-02-16T13:05:04;4.00;;;2.50;;
49834;SDS011;35729;52.090;13.162;2024-02-16T13:07:33;3.40;;;2.15;;
49834;SDS011;35729;52.090;13.162;2024-02-16T13:10:03;3.85;;;1.85;;
49834;SDS011;35729;52.090;13.162;2024-02-16T13:12:32;2.90;;;2.10;;
49834;SDS011;35729;52.090;13.162;2024-02-16T13:15:05;4.03;;;1.88;;
49834;SDS011;35729;52.090;13.162;2024-02-16T13:17:34;2.55;;;1.80;;
49834;SDS011;35729;52.090;13.162;2024-02-16T13:20:03;3.67;;;1.80;;
49834;SDS011;35729;52.090;13.162;2024-02-16T13:22:34;2.60;;;1.88;;
49834;SDS011;35729;52.090;13.162;2024-02-16T13:25:03;3.97;;;1.98;;
49834;SDS011;35729;52.090;13.162;2024-02-16T13:27:32;3.05;;;2.10;;
49834;SDS011;35729;52.090;13.162;2024-02-16T13:30:02;3.63;;;2.10;;
49834;SDS011;35729;52.090;13.162;2024-02-16T13:32:34;3.65;;;2.15;;
49834;SDS011;35729;52.090;13.162;2024-02-16T13:35:05;3.92;;;2.20;;
49834;SDS011;35729;52.090;13.162;2024-02-16T13:37:34;3.97;;;2.35;;
49834;SDS011;35729;52.090;13.162;2024-02-16T13:40:03;2.67;;;2.30;;
49834;SDS011;35729;52.090;13.162;2024-02-16T13:45:09;7.03;;;2.50;;
49834;SDS011;35729;52.090;13.162;2024-02-16T13:47:38;4.50;;;2.30;;
49834;SDS011;35729;52.090;13.162;2024-02-16T13:50:07;3.78;;;2.42;;
49834;SDS011;35729;52.090;13.162;2024-02-16T13:52:36;4.32;;;2.67;;
49834;SDS011;35729;52.090;13.162;2024-02-16T13:55:04;4.53;;;2.33;;
49834;SDS011;35729;52.090;13.162;2024-02-16T13:57:40;4.85;;;2.38;;
49834;SDS011;35729;52.090;13.162;2024-02-16T14:00:12;3.72;;;2.80;;
49834;SDS011;35729;52.090;13.162;2024-02-16T14:02:41;3.42;;;2.78;;
49834;SDS011;35729;52.090;13.162;2024-02-16T14:05:10;6.43;;;2.60;;
49834;SDS011;35729;52.090;13.162;2024-02-16T14:07:39;4.60;;;3.15;;
49834;SDS011;35729;52.090;13.162;2024-02-16T14:10:08;5.00;;;2.90;;
49834;SDS011;35729;52.090;13.162;2024-02-16T14:12:37;3.63;;;2.90;;
49834;SDS011;35729;52.090;13.162;2024-02-16T14:15:06;4.35;;;3.15;;
49834;SDS011;35729;52.090;13.162;2024-02-16T14:17:43;4.47;;;3.00;;
49834;SDS011;35729;52.090;13.162;2024-02-16T14:20:11;3.22;;;2.65;;
49834;SDS011;35729;52.090;13.162;2024-02-16T14:22:40;3.88;;;2.75;;
49834;SDS011;35729;52.090;13.162;2024-02-16T14:25:10;5.45;;;2.40;;
49834;SDS011;35729;52.090;13.162;2024-02-16T14:27:39;5.47;;;2.83;;
49834;SDS011;35729;52.090;13.162;2024-02-16T14:30:09;4.68;;;2.92;;
49834;SDS011;35729;52.090;13.162;2024-02-16T14:32:38;3.80;;;2.40;;
49834;SDS011;35729;52.090;13.162;2024-02-16T14:35:09;2.85;;;2.10;;
49834;SDS011;35729;52.090;13.162;2024-02-16T14:37:38;4.65;;;2.20;;
49834;SDS011;35729;52.090;13.162;2024-02-16T14:40:07;3.92;;;1.70;;